sensor_id;sensor_type;location;lat;lon;timestamp;temperature;humidity
18662;DHT22;61528;49.456;11.098;2022-10-16T02:52:30;15.70;99.90
18662;DHT22;61528;49.456;11.098;2022-10-16T02:54:55;15.80;99.90
18662;DHT22;61528;49.456;11.098;2022-10-16T02:57:21;15.80;99.90
18662;DHT22;61528;49.456;11.098;2022-10-16T02:59:47;15.70;99.90
18662;DHT22;61528;49.456;11.098;2022-10-16T03:02:13;15.70;99.90
18662;DHT22;61528;49.456;11.098;2022-10-16T03:04:39;15.70;99.90
18662;DHT22;61528;49.456;11.098;2022-10-16T03:07:04;15.70;99.90
18662;DHT22;61528;49.456;11.098;2022-10-16T03:09:30;15.70;99.90
18662;DHT22;61528;49.456;11.098;2022-10-16T03:11:56;15.80;99.90
18662;DHT22;61528;49.456;11.098;2022-10-16T03:14:22;15.70;99.90
18662;DHT22;61528;49.456;11.098;2022-10-16T03:16:47;15.70;99.90
18662;DHT22;61528;49.456;11.098;2022-10-16T03:19:13;15.70;99.90
18662;DHT22;61528;49.456;11.098;2022-10-16T03:21:39;15.70;99.90
18662;DHT22;61528;49.456;11.098;2022-10-16T03:24:05;15.70;99.90
18662;DHT22;61528;49.456;11.098;2022-10-16T03:26:31;15.70;99.90
18662;DHT22;61528;49.456;11.098;2022-10-16T03:28:56;15.70;99.90
18662;DHT22;61528;49.456;11.098;2022-10-16T03:31:22;15.70;99.90
18662;DHT22;61528;49.456;11.098;2022-10-16T03:33:48;15.80;99.90
18662;DHT22;61528;49.456;11.098;2022-10-16T03:36:14;15.70;99.90
18662;DHT22;61528;49.456;11.098;2022-10-16T03:38:39;15.70;99.90
18662;DHT22;61528;49.456;11.098;2022-10-16T03:41:05;15.70;99.90
18662;DHT22;61528;49.456;11.098;2022-10-16T03:43:33;15.70;99.90
18662;DHT22;61528;49.456;11.098;2022-10-16T03:45:59;15.70;99.90
18662;DHT22;61528;49.456;11.098;2022-10-16T03:48:25;15.70;99.90
18662;DHT22;61528;49.456;11.098;2022-10-16T03:50:50;15.70;99.90
18662;DHT22;61528;49.456;11.098;2022-10-16T03:53:17;15.70;99.90
18662;DHT22;61528;49.456;11.098;2022-10-16T03:55:44;15.70;99.90
18662;DHT22;61528;49.456;11.098;2022-10-16T03:58:10;15.70;99.90
18662;DHT22;61528;49.456;11.098;2022-10-16T04:00:39;15.80;99.90
18662;DHT22;61528;49.456;11.098;2022-10-16T04:03:05;15.90;99.90
18662;DHT22;61528;49.456;11.098;2022-10-16T04:05:31;15.90;99.90
18662;DHT22;61528;49.456;11.098;2022-10-16T04:07:57;15.90;99.90
18662;DHT22;61528;49.456;11.098;2022-10-16T04:10:22;15.80;99.90
18662;DHT22;61528;49.456;11.098;2022-10-16T04:12:48;15.70;99.90
18662;DHT22;61528;49.456;11.098;2022-10-16T04:15:14;15.70;99.90
18662;DHT22;61528;49.456;11.098;2022-10-16T04:17:40;15.70;99.90
18662;DHT22;61528;49.456;11.098;2022-10-16T04:20:06;15.60;99.90
18662;DHT22;61528;49.456;11.098;2022-10-16T04:22:32;15.60;99.90
18662;DHT22;61528;49.456;11.098;2022-10-16T04:24:58;15.60;99.90
18662;DHT22;61528;49.456;11.098;2022-10-16T04:27:24;15.50;99.90
18662;DHT22;61528;49.456;11.098;2022-10-16T04:29:49;15.50;99.90
18662;DHT22;61528;49.456;11.098;2022-10-16T04:32:15;15.50;99.90
18662;DHT22;61528;49.456;11.098;2022-10-16T04:34:41;15.50;99.90
18662;DHT22;61528;49.456;11.098;2022-10-16T04:37:07;15.50;99.90
18662;DHT22;61528;49.456;11.098;2022-10-16T04:39:33;15.50;99.90
18662;DHT22;61528;49.456;11.098;2022-10-16T04:41:58;15.50;99.90
18662;DHT22;61528;49.456;11.098;2022-10-16T04:44:24;15.60;99.90
18662;DHT22;61528;49.456;11.098;2022-10-16T04:46:51;15.60;99.90
18662;DHT22;61528;49.456;11.098;2022-10-16T04:49:17;15.70;99.90
18662;DHT22;61528;49.456;11.098;2022-10-16T04:51:43;15.70;99.90
18662;DHT22;61528;49.456;11.098;2022-10-16T04:54:09;15.70;99.90
18662;DHT22;61528;49.456;11.098;2022-10-16T04:56:35;15.70;99.90
18662;DHT22;61528;49.456;11.098;2022-10-16T04:59:09;15.70;99.90
18662;DHT22;61528;49.456;11.098;2022-10-16T05:01:35;15.80;99.90
18662;DHT22;61528;49.456;11.098;2022-10-16T05:04:00;15.70;99.90
18662;DHT22;61528;49.456;11.098;2022-10-16T05:06:26;15.70;99.90
18662;DHT22;61528;49.456;11.098;2022-10-16T05:08:52;15.70;99.90
18662;DHT22;61528;49.456;11.098;2022-10-16T05:11:18;15.60;99.90
18662;DHT22;61528;49.456;11.098;2022-10-16T05:13:44;15.60;99.90
18662;DHT22;61528;49.456;11.098;2022-10-16T05:16:10;15.60;99.90
18662;DHT22;61528;49.456;11.098;2022-10-16T05:18:35;15.60;99.90
18662;DHT22;61528;49.456;11.098;2022-10-16T05:21:01;15.60;99.90
18662;DHT22;61528;49.456;11.098;2022-10-16T05:23:27;15.60;99.90
18662;DHT22;61528;49.456;11.098;2022-10-16T05:25:55;15.50;99.90
18662;DHT22;61528;49.456;11.098;2022-10-16T05:28:24;15.50;99.90
18662;DHT22;61528;49.456;11.098;2022-10-16T05:30:50;15.50;99.90
18662;DHT22;61528;49.456;11.098;2022-10-16T05:33:16;15.50;99.90
18662;DHT22;61528;49.456;11.098;2022-10-16T05:35:42;15.50;99.90
18662;DHT22;61528;49.456;11.098;2022-10-16T05:38:09;15.40;99.90
18662;DHT22;61528;49.456;11.098;2022-10-16T05:40:35;15.40;99.90
18662;DHT22;61528;49.456;11.098;2022-10-16T05:43:00;15.40;99.90
18662;DHT22;61528;49.456;11.098;2022-10-16T05:45:26;15.40;99.90
18662;DHT22;61528;49.456;11.098;2022-10-16T05:47:52;15.30;99.90
18662;DHT22;61528;49.456;11.098;2022-10-16T05:50:18;15.30;99.90
18662;DHT22;61528;49.456;11.098;2022-10-16T05:52:44;15.30;99.90
18662;DHT22;61528;49.456;11.098;2022-10-16T05:55:09;15.30;99.90
18662;DHT22;61528;49.456;11.098;2022-10-16T05:57:35;15.30;99.90
18662;DHT22;61528;49.456;11.098;2022-10-16T06:00:01;15.30;99.90
18662;DHT22;61528;49.456;11.098;2022-10-16T06:02:27;15.30;99.90
18662;DHT22;61528;49.456;11.098;2022-10-16T06:04:52;15.30;99.90
18662;DHT22;61528;49.456;11.098;2022-10-16T06:07:19;15.40;99.90
18662;DHT22;61528;49.456;11.098;2022-10-16T06:09:51;15.40;99.90
18662;DHT22;61528;49.456;11.098;2022-10-16T06:12:18;15.50;99.90
18662;DHT22;61528;49.456;11.098;2022-10-16T06:14:45;15.50;99.90
18662;DHT22;61528;49.456;11.098;2022-10-16T06:17:13;15.50;99.90
18662;DHT22;61528;49.456;11.098;2022-10-16T06:19:39;15.50;99.90
18662;DHT22;61528;49.456;11.098;2022-10-16T06:22:06;15.50;99.90
18662;DHT22;61528;49.456;11.098;2022-10-16T06:24:32;15.50;99.90
18662;DHT22;61528;49.456;11.098;2022-10-16T06:26:58;15.50;99.90
18662;DHT22;61528;49.456;11.098;2022-10-16T06:29:24;15.50;99.90
18662;DHT22;61528;49.456;11.098;2022-10-16T06:31:49;15.50;99.90
18662;DHT22;61528;49.456;11.098;2022-10-16T06:34:15;15.50;99.90
18662;DHT22;61528;49.456;11.098;2022-10-16T06:36:41;15.60;99.90
18662;DHT22;61528;49.456;11.098;2022-10-16T06:39:09;15.70;99.90
18662;DHT22;61528;49.456;11.098;2022-10-16T06:41:35;15.70;99.90
18662;DHT22;61528;49.456;11.098;2022-10-16T06:44:01;15.70;99.90
18662;DHT22;61528;49.456;11.098;2022-10-16T06:46:27;15.70;99.90
18662;DHT22;61528;49.456;11.098;2022-10-16T06:48:53;15.70;99.90
18662;DHT22;61528;49.456;11.098;2022-10-16T06:51:21;15.70;99.90
18662;DHT22;61528;49.456;11.098;2022-10-16T06:53:52;15.80;99.90
18662;DHT22;61528;49.456;11.098;2022-10-16T06:58:46;15.80;99.90
18662;DHT22;61528;49.456;11.098;2022-10-16T07:01:13;15.80;99.90
18662;DHT22;61528;49.456;11.098;2022-10-16T07:03:44;15.80;99.90
18662;DHT22;61528;49.456;11.098;2022-10-16T07:06:12;15.80;99.90
18662;DHT22;61528;49.456;11.098;2022-10-16T07:08:40;15.80;99.90
18662;DHT22;61528;49.456;11.098;2022-10-16T07:11:08;15.80;99.90
18662;DHT22;61528;49.456;11.098;2022-10-16T07:13:38;15.80;99.90
18662;DHT22;61528;49.456;11.098;2022-10-16T07:16:25;15.80;99.90
18662;DHT22;61528;49.456;11.098;2022-10-16T07:18:51;15.80;99.90
18662;DHT22;61528;49.456;11.098;2022-10-16T07:21:23;15.90;99.90
18662;DHT22;61528;49.456;11.098;2022-10-16T07:23:52;15.90;99.90
18662;DHT22;61528;49.456;11.098;2022-10-16T07:26:18;15.90;99.90
18662;DHT22;61528;49.456;11.098;2022-10-16T07:28:44;16.00;99.90
18662;DHT22;61528;49.456;11.098;2022-10-16T07:31:11;16.10;99.90
18662;DHT22;61528;49.456;11.098;2022-10-16T07:33:39;16.00;99.90
18662;DHT22;61528;49.456;11.098;2022-10-16T07:36:06;16.00;99.90
18662;DHT22;61528;49.456;11.098;2022-10-16T07:38:32;16.00;99.90
18662;DHT22;61528;49.456;11.098;2022-10-16T07:41:03;16.00;99.90
18662;DHT22;61528;49.456;11.098;2022-10-16T07:43:30;16.00;99.90
18662;DHT22;61528;49.456;11.098;2022-10-16T07:45:56;16.00;99.90
18662;DHT22;61528;49.456;11.098;2022-10-16T07:48:23;16.00;99.90
18662;DHT22;61528;49.456;11.098;2022-10-16T07:50:49;16.10;99.90
18662;DHT22;61528;49.456;11.098;2022-10-16T07:53:15;16.10;99.90
18662;DHT22;61528;49.456;11.098;2022-10-16T07:55:41;16.20;99.90
18662;DHT22;61528;49.456;11.098;2022-10-16T07:58:08;16.20;99.90
18662;DHT22;61528;49.456;11.098;2022-10-16T08:00:35;16.20;99.90
18662;DHT22;61528;49.456;11.098;2022-10-16T08:03:01;16.20;99.90
18662;DHT22;61528;49.456;11.098;2022-10-16T08:05:28;16.20;99.90
18662;DHT22;61528;49.456;11.098;2022-10-16T08:07:55;16.20;99.90
18662;DHT22;61528;49.456;11.098;2022-10-16T08:10:23;16.20;99.90
18662;DHT22;61528;49.456;11.098;2022-10-16T08:12:50;16.20;99.90
18662;DHT22;61528;49.456;11.098;2022-10-16T08:15:17;16.20;99.90
18662;DHT22;61528;49.456;11.098;2022-10-16T08:17:42;16.20;99.90
18662;DHT22;61528;49.456;11.098;2022-10-16T08:20:09;16.20;99.90
18662;DHT22;61528;49.456;11.098;2022-10-16T08:22:35;16.20;99.90
18662;DHT22;61528;49.456;11.098;2022-10-16T08:25:00;16.20;99.90
18662;DHT22;61528;49.456;11.098;2022-10-16T08:27:31;16.30;99.90
18662;DHT22;61528;49.456;11.098;2022-10-16T08:29:57;16.30;99.90
18662;DHT22;61528;49.456;11.098;2022-10-16T08:32:23;16.30;99.90
18662;DHT22;61528;49.456;11.098;2022-10-16T08:34:49;16.30;99.90
18662;DHT22;61528;49.456;11.098;2022-10-16T08:37:14;16.40;99.90
18662;DHT22;61528;49.456;11.098;2022-10-16T08:39:40;16.40;99.90
18662;DHT22;61528;49.456;11.098;2022-10-16T08:50:21;16.60;99.90
18662;DHT22;61528;49.456;11.098;2022-10-16T08:52:48;16.60;99.90
18662;DHT22;61528;49.456;11.098;2022-10-16T08:55:34;16.70;99.90
18662;DHT22;61528;49.456;11.098;2022-10-16T08:58:12;16.70;99.90
18662;DHT22;61528;49.456;11.098;2022-10-16T09:00:39;16.80;99.90
